Time;durP1;ratioP1;P1;durP2;ratioP2;P2;SDS_P1;SDS_P2;PMS_P1;PMS_P2;Temp;Humidity;BMP_temperature;BMP_pressure;BME280_temperature;BME280_humidity;BME280_pressure;Samples;Min_cycle;Max_cycle;Signal;HPM_P1;HPM_P2
2022/03/10 00:00:07;;;;;;;20.90;14.80;;;3.40;92.30;;;;;;5032607;28;20179;-65
2022/03/10 00:02:33;;;;;;;20.87;14.90;;;3.40;92.40;;;;;;5032491;28;20207;-65
2022/03/10 00:04:58;;;;;;;18.70;15.30;;;3.40;92.20;;;;;;5033707;28;20274;-66
2022/03/10 00:07:24;;;;;;;19.03;14.17;;;3.30;92.90;;;;;;5033840;28;20187;-66
2022/03/10 00:09:49;;;;;;;16.43;13.10;;;3.30;93.40;;;;;;5033752;28;20175;-65
2022/03/10 00:12:15;;;;;;;17.17;13.70;;;3.20;94.30;;;;;;5033381;28;20632;-66
2022/03/10 00:14:40;;;;;;;16.23;14.53;;;3.20;94.70;;;;;;5032036;28;20245;-66
2022/03/10 00:17:06;;;;;;;17.10;15.27;;;3.10;94.70;;;;;;5033351;28;20533;-65
2022/03/10 00:19:32;;;;;;;18.17;16.43;;;3.10;94.80;;;;;;5032219;28;20211;-65
2022/03/10 00:21:58;;;;;;;18.27;15.93;;;3.00;95.00;;;;;;5033062;28;20207;-65
2022/03/10 00:24:24;;;;;;;21.87;18.17;;;3.00;95.80;;;;;;5033363;28;20218;-65
2022/03/10 00:26:50;;;;;;;20.23;17.27;;;2.90;95.70;;;;;;5033399;28;20221;-65
2022/03/10 00:29:15;;;;;;;22.57;18.27;;;2.90;97.40;;;;;;5031969;28;20186;-66
2022/03/10 00:31:41;;;;;;;17.23;15.30;;;2.80;98.40;;;;;;5033561;28;20186;-66
2022/03/10 00:34:07;;;;;;;24.80;17.20;;;2.80;98.30;;;;;;5032893;28;20695;-66
2022/03/10 00:36:33;;;;;;;21.13;16.77;;;2.80;98.70;;;;;;5033422;28;20542;-66
2022/03/10 00:38:59;;;;;;;18.67;16.13;;;2.80;99.00;;;;;;5033075;28;20193;-66
2022/03/10 00:41:24;;;;;;;19.37;16.23;;;2.90;98.90;;;;;;5033037;28;20235;-65
2022/03/10 00:43:50;;;;;;;21.37;15.43;;;2.90;98.80;;;;;;5032759;28;20253;-66
2022/03/10 00:46:15;;;;;;;20.77;15.33;;;2.90;98.50;;;;;;5033168;28;20260;-65
2022/03/10 00:48:41;;;;;;;18.90;15.93;;;2.90;98.00;;;;;;5032428;28;20587;-64
2022/03/10 00:51:07;;;;;;;17.37;15.53;;;3.00;97.50;;;;;;5032764;28;20222;-65
2022/03/10 00:53:34;;;;;;;20.53;16.73;;;3.10;97.20;;;;;;5032912;28;20661;-65
2022/03/10 00:55:59;;;;;;;22.07;16.03;;;3.10;97.00;;;;;;5033117;28;20815;-65
2022/03/10 00:58:25;;;;;;;16.90;14.93;;;3.20;97.10;;;;;;5048926;28;20273;-65
2022/03/10 01:00:52;;;;;;;21.13;15.40;;;3.20;96.80;;;;;;5045737;28;20191;-65
2022/03/10 01:03:18;;;;;;;18.60;15.17;;;3.20;96.70;;;;;;5032627;28;20266;-65
2022/03/10 01:05:44;;;;;;;21.67;16.00;;;3.20;96.60;;;;;;5032689;28;20645;-65
2022/03/10 01:08:10;;;;;;;22.73;15.67;;;3.20;96.60;;;;;;5033061;28;20180;-66
2022/03/10 01:10:36;;;;;;;18.73;15.13;;;3.10;96.40;;;;;;5032682;28;20233;-64
2022/03/10 01:13:02;;;;;;;19.90;15.57;;;3.10;96.80;;;;;;5031964;28;20599;-65
2022/03/10 01:15:28;;;;;;;20.40;15.07;;;3.10;96.70;;;;;;5033008;28;20543;-65
2022/03/10 01:17:55;;;;;;;19.33;14.93;;;3.10;96.80;;;;;;5032335;28;20183;-65
2022/03/10 01:20:23;;;;;;;19.80;14.50;;;3.00;97.10;;;;;;5032526;28;20387;-65
2022/03/10 01:22:50;;;;;;;18.17;14.57;;;3.00;97.60;;;;;;5031937;28;20673;-66
2022/03/10 01:25:17;;;;;;;18.83;15.50;;;2.90;99.00;;;;;;5032532;28;20191;-66
2022/03/10 01:27:43;;;;;;;18.63;14.90;;;2.70;99.20;;;;;;5032526;28;20186;-65
2022/03/10 01:30:09;;;;;;;24.83;15.73;;;2.70;99.90;;;;;;5032131;28;20175;-65
2022/03/10 01:32:36;;;;;;;18.07;13.97;;;2.60;99.90;;;;;;5031803;28;20680;-66
2022/03/10 01:35:02;;;;;;;17.43;14.97;;;2.50;99.90;;;;;;5031666;28;20195;-66
2022/03/10 01:37:29;;;;;;;18.37;14.27;;;2.40;99.90;;;;;;5039388;28;20258;-66
2022/03/10 01:39:55;;;;;;;19.20;13.60;;;2.30;99.90;;;;;;5052225;28;20262;-65
2022/03/10 01:42:22;;;;;;;18.80;13.47;;;2.20;99.90;;;;;;5052192;28;20215;-66
2022/03/10 01:44:53;;;;;;;17.90;13.80;;;2.10;99.90;;;;;;5047505;28;20232;-65
2022/03/10 01:47:19;;;;;;;18.73;13.70;;;2.10;99.90;;;;;;5032094;28;20167;-65
2022/03/10 01:49:44;;;;;;;17.20;12.80;;;2.10;99.90;;;;;;5032198;28;20210;-65
2022/03/10 01:52:10;;;;;;;16.57;12.83;;;2.10;99.90;;;;;;5031903;28;20214;-65
2022/03/10 01:54:36;;;;;;;20.13;13.70;;;2.10;99.90;;;;;;5031315;28;20205;-65
2022/03/10 01:57:03;;;;;;;17.73;14.30;;;2.10;99.90;;;;;;5031825;28;20236;-66
2022/03/10 01:59:29;;;;;;;17.13;13.83;;;2.10;99.90;;;;;;5031702;28;20179;-65
2022/03/10 02:01:55;;;;;;;17.20;13.93;;;2.10;99.90;;;;;;5031483;28;20271;-67
2022/03/10 02:04:22;;;;;;;20.27;14.03;;;2.00;99.90;;;;;;5031410;28;20629;-65
2022/03/10 02:06:48;;;;;;;17.23;13.67;;;2.00;99.90;;;;;;5031198;28;20187;-65
2022/03/10 02:11:58;;;;;;;18.13;13.73;;;2.00;99.90;;;;;;5011920;28;20215;-66
2022/03/10 02:17:41;;;;;;;18.73;13.90;;;2.00;99.90;;;;;;5031296;28;20221;-67
2022/03/10 02:19:59;;;;;;;16.07;14.07;;;2.00;99.90;;;;;;5010212;28;20196;-65
2022/03/10 02:22:26;;;;;;;20.57;14.80;;;1.90;99.90;;;;;;5027859;28;20219;-66
2022/03/10 02:24:53;;;;;;;16.80;13.93;;;1.80;99.90;;;;;;5031324;28;20237;-65
2022/03/10 02:27:24;;;;;;;20.07;14.17;;;1.80;99.90;;;;;;5031489;28;20171;-65
2022/03/10 02:29:55;;;;;;;20.53;15.10;;;1.80;99.90;;;;;;5021553;28;20637;-65
2022/03/10 02:32:21;;;;;;;21.53;15.03;;;1.80;99.90;;;;;;5030923;28;20191;-65
2022/03/10 02:34:48;;;;;;;17.00;14.60;;;1.80;99.90;;;;;;5031377;28;20214;-65
2022/03/10 02:37:14;;;;;;;15.93;13.80;;;1.80;99.90;;;;;;5031164;28;20237;-65
2022/03/10 02:39:40;;;;;;;15.73;12.97;;;1.80;99.90;;;;;;5031075;28;20187;-65
2022/03/10 02:42:06;;;;;;;17.77;14.27;;;1.80;99.90;;;;;;5031267;28;20617;-65
2022/03/10 02:44:32;;;;;;;16.60;13.03;;;1.90;99.90;;;;;;5031000;28;20207;-64
2022/03/10 02:46:58;;;;;;;18.73;14.03;;;1.80;99.90;;;;;;5030590;28;20553;-65
2022/03/10 02:49:24;;;;;;;17.23;13.93;;;1.80;99.90;;;;;;5033456;28;20240;-64
2022/03/10 02:51:50;;;;;;;26.63;16.10;;;1.80;99.90;;;;;;5035555;28;20183;-65
2022/03/10 02:54:16;;;;;;;19.83;14.57;;;1.80;99.90;;;;;;5035149;28;20322;-65
2022/03/10 02:56:42;;;;;;;18.57;14.80;;;1.80;99.90;;;;;;5034812;28;20233;-65
2022/03/10 02:59:09;;;;;;;17.67;13.77;;;1.80;99.90;;;;;;5033893;28;20593;-65
2022/03/10 03:01:34;;;;;;;17.57;14.40;;;1.80;99.90;;;;;;5034620;28;20260;-65
2022/03/10 03:04:00;;;;;;;20.00;14.37;;;1.80;99.90;;;;;;5035103;28;20203;-65
2022/03/10 03:06:25;;;;;;;20.73;14.33;;;1.80;99.90;;;;;;5034929;28;20254;-66
2022/03/10 03:08:51;;;;;;;20.40;16.07;;;1.80;99.90;;;;;;5034888;28;20171;-65
2022/03/10 03:11:17;;;;;;;18.43;15.17;;;1.80;99.90;;;;;;5034774;28;20184;-65
2022/03/10 03:13:42;;;;;;;17.03;14.63;;;1.80;99.90;;;;;;5034613;28;20198;-65
2022/03/10 03:16:08;;;;;;;19.77;14.63;;;1.80;99.90;;;;;;5034380;28;20184;-65
2022/03/10 03:18:33;;;;;;;22.67;14.37;;;1.80;99.90;;;;;;5033643;28;20183;-64
2022/03/10 03:20:59;;;;;;;19.37;14.63;;;1.70;99.90;;;;;;5034189;28;20184;-65
2022/03/10 03:23:25;;;;;;;20.03;15.03;;;1.80;99.90;;;;;;5034483;28;20229;-65
2022/03/10 03:25:52;;;;;;;18.73;14.90;;;1.80;99.90;;;;;;5034452;28;20195;-65
2022/03/10 03:28:21;;;;;;;19.13;13.27;;;1.80;99.90;;;;;;5034801;28;20254;-65
2022/03/10 03:30:47;;;;;;;16.13;14.40;;;1.80;99.90;;;;;;5034283;28;20183;-65
2022/03/10 03:33:13;;;;;;;19.97;15.13;;;1.80;99.90;;;;;;5033803;28;20205;-65
2022/03/10 03:35:38;;;;;;;19.50;13.93;;;1.80;99.90;;;;;;5034744;28;20515;-66
2022/03/10 03:38:04;;;;;;;22.03;14.93;;;1.80;99.90;;;;;;5034454;28;20203;-64
2022/03/10 03:40:30;;;;;;;18.90;15.10;;;1.80;99.90;;;;;;5034663;28;20250;-64
2022/03/10 03:42:55;;;;;;;20.87;14.53;;;1.80;99.90;;;;;;5033948;28;20306;-67
2022/03/10 03:45:22;;;;;;;17.73;13.53;;;1.80;99.90;;;;;;5033943;28;20203;-65
2022/03/10 03:47:48;;;;;;;22.47;14.37;;;1.80;99.90;;;;;;5034307;28;20180;-65
2022/03/10 03:50:14;;;;;;;18.57;14.93;;;1.80;99.90;;;;;;5033886;28;20180;-65
2022/03/10 03:52:40;;;;;;;16.00;14.40;;;1.80;99.90;;;;;;5034349;28;20282;-65
2022/03/10 03:55:06;;;;;;;18.03;14.60;;;1.70;99.90;;;;;;5033997;28;20206;-65
2022/03/10 03:57:32;;;;;;;20.33;16.03;;;1.70;99.90;;;;;;5034752;28;20191;-65
2022/03/10 03:59:57;;;;;;;17.43;14.30;;;1.60;99.90;;;;;;5033371;28;20687;-64
2022/03/10 04:02:23;;;;;;;20.43;15.47;;;1.60;99.90;;;;;;5033507;28;20257;-65
2022/03/10 04:04:48;;;;;;;20.53;15.67;;;1.60;99.90;;;;;;5033975;28;20282;-65
2022/03/10 04:07:15;;;;;;;19.73;14.83;;;1.60;99.90;;;;;;5034226;28;20164;-65
2022/03/10 04:09:41;;;;;;;19.67;15.40;;;1.60;99.90;;;;;;5033924;28;20175;-65
2022/03/10 04:12:07;;;;;;;17.73;14.97;;;1.60;99.90;;;;;;5033734;28;20222;-65
2022/03/10 04:14:32;;;;;;;17.80;15.00;;;1.60;99.90;;;;;;5033668;28;20226;-66
2022/03/10 04:16:58;;;;;;;19.07;15.50;;;1.50;99.90;;;;;;5033313;28;20188;-66
2022/03/10 04:19:23;;;;;;;22.10;15.77;;;1.50;99.90;;;;;;5032649;28;20178;-65
2022/03/10 04:21:49;;;;;;;17.47;13.10;;;1.50;99.90;;;;;;5033879;28;20231;-64
2022/03/10 04:24:15;;;;;;;16.93;14.63;;;1.40;99.90;;;;;;5033114;28;20225;-64
2022/03/10 04:26:40;;;;;;;18.87;15.40;;;1.40;99.90;;;;;;5033317;28;20176;-63
2022/03/10 04:29:06;;;;;;;20.03;15.20;;;1.40;99.90;;;;;;5033432;28;20186;-65
2022/03/10 04:31:32;;;;;;;18.57;15.50;;;1.30;99.90;;;;;;5033510;28;20179;-65
2022/03/10 04:33:58;;;;;;;18.50;15.27;;;1.30;99.90;;;;;;5033164;28;20222;-65
2022/03/10 04:36:24;;;;;;;19.50;14.77;;;1.20;99.90;;;;;;5032585;28;20594;-65
2022/03/10 04:38:50;;;;;;;22.90;14.93;;;1.20;99.90;;;;;;5045024;28;20194;-65
2022/03/10 04:41:16;;;;;;;19.70;15.33;;;1.20;99.90;;;;;;5046739;28;20191;-65
2022/03/10 04:43:42;;;;;;;17.37;15.50;;;1.20;99.90;;;;;;5040045;28;20354;-64
2022/03/10 04:46:08;;;;;;;25.17;15.63;;;1.20;99.90;;;;;;5031955;28;20176;-64
2022/03/10 04:48:33;;;;;;;19.70;16.27;;;1.10;99.90;;;;;;5031351;28;20175;-65
2022/03/10 04:50:59;;;;;;;21.67;15.63;;;1.10;99.90;;;;;;5033033;28;20243;-65
2022/03/10 04:53:24;;;;;;;17.23;15.10;;;1.10;99.90;;;;;;5032833;28;20187;-64
2022/03/10 04:55:50;;;;;;;20.77;15.10;;;1.10;99.90;;;;;;5032432;28;20257;-64
2022/03/10 04:58:15;;;;;;;18.53;15.03;;;1.10;99.90;;;;;;5031545;28;20191;-64
2022/03/10 05:00:41;;;;;;;21.87;16.57;;;1.10;99.90;;;;;;5032741;28;20171;-64
2022/03/10 05:03:07;;;;;;;19.27;14.90;;;1.10;99.90;;;;;;5032695;28;20260;-65
2022/03/10 05:05:33;;;;;;;18.03;15.93;;;1.10;99.90;;;;;;5031414;28;20222;-65
2022/03/10 05:07:58;;;;;;;21.57;16.20;;;1.00;99.90;;;;;;5032580;28;20176;-62
2022/03/10 05:10:24;;;;;;;23.10;15.70;;;1.00;99.90;;;;;;5032588;28;20180;-65
2022/03/10 05:12:52;;;;;;;22.83;15.33;;;1.00;99.90;;;;;;5031560;28;20179;-65
2022/03/10 05:15:23;;;;;;;23.13;16.37;;;1.00;99.90;;;;;;5032488;28;20218;-65
2022/03/10 05:17:49;;;;;;;19.00;15.53;;;1.00;99.90;;;;;;5031382;28;20198;-65
2022/03/10 05:20:16;;;;;;;24.50;14.90;;;1.00;99.90;;;;;;5032418;28;20188;-64
2022/03/10 05:22:45;;;;;;;24.47;16.17;;;1.10;99.90;;;;;;5031208;28;20321;-65
2022/03/10 05:25:14;;;;;;;19.80;15.60;;;1.10;99.90;;;;;;5032129;28;20592;-64
2022/03/10 05:27:40;;;;;;;25.33;15.63;;;1.10;99.90;;;;;;5032656;28;20672;-65
2022/03/10 05:30:07;;;;;;;21.90;15.87;;;1.10;99.90;;;;;;5030704;28;20179;-65
2022/03/10 05:32:33;;;;;;;20.07;15.57;;;1.10;99.90;;;;;;5032634;28;20514;-65
2022/03/10 05:35:00;;;;;;;18.80;14.77;;;1.00;99.90;;;;;;5032095;28;20261;-65
2022/03/10 05:37:26;;;;;;;21.13;16.03;;;1.00;99.90;;;;;;5032496;28;20215;-65
2022/03/10 05:39:52;;;;;;;20.13;16.67;;;1.00;99.90;;;;;;5032373;28;20182;-66
2022/03/10 05:42:18;;;;;;;21.20;15.90;;;1.00;99.90;;;;;;5038748;28;20198;-64
2022/03/10 05:44:43;;;;;;;18.20;15.30;;;1.10;99.90;;;;;;5051106;28;20206;-64
2022/03/10 05:47:09;;;;;;;17.77;15.33;;;1.00;99.90;;;;;;5041176;28;20691;-64
2022/03/10 05:49:36;;;;;;;22.07;16.63;;;1.00;99.90;;;;;;5032430;28;20171;-65
2022/03/10 05:52:02;;;;;;;18.07;15.47;;;1.00;99.90;;;;;;5031646;28;20241;-65
2022/03/10 05:54:27;;;;;;;20.10;16.43;;;1.00;99.90;;;;;;5030839;28;20199;-66
2022/03/10 05:56:53;;;;;;;18.53;14.40;;;1.00;99.90;;;;;;5031961;28;20293;-65
2022/03/10 05:59:19;;;;;;;21.70;15.00;;;1.00;99.90;;;;;;5031684;28;20829;-66
2022/03/10 06:01:49;;;;;;;21.63;16.20;;;1.00;99.90;;;;;;5031742;28;20207;-65
2022/03/10 06:04:15;;;;;;;23.60;16.80;;;1.00;99.90;;;;;;5031462;28;20417;-64
2022/03/10 06:06:43;;;;;;;21.53;16.20;;;1.00;99.90;;;;;;5032027;28;20286;-65
2022/03/10 06:09:10;;;;;;;24.00;16.70;;;1.00;99.90;;;;;;5030262;28;20206;-65
2022/03/10 06:11:35;;;;;;;20.10;16.60;;;1.00;99.90;;;;;;5030941;28;20305;-64
2022/03/10 06:14:01;;;;;;;22.00;15.50;;;1.00;99.90;;;;;;5031478;28;20203;-65
2022/03/10 06:16:26;;;;;;;24.17;15.87;;;1.00;99.90;;;;;;5031326;28;20258;-64
2022/03/10 06:18:52;;;;;;;23.77;15.90;;;1.00;99.90;;;;;;5031472;28;20262;-65
2022/03/10 06:21:18;;;;;;;23.70;16.67;;;1.00;99.90;;;;;;5031402;28;20567;-65
2022/03/10 06:23:44;;;;;;;21.47;16.00;;;1.00;99.90;;;;;;5029838;28;20187;-65
2022/03/10 06:26:09;;;;;;;22.43;15.20;;;1.00;99.90;;;;;;5031110;28;20180;-64
2022/03/10 06:28:35;;;;;;;18.43;16.00;;;1.00;99.90;;;;;;5031189;28;20182;-64
2022/03/10 06:31:01;;;;;;;18.50;15.73;;;1.10;99.90;;;;;;5031683;28;20202;-64
2022/03/10 06:33:26;;;;;;;20.00;14.90;;;1.10;99.90;;;;;;5030578;28;20266;-64
2022/03/10 06:35:52;;;;;;;20.40;16.47;;;1.20;99.90;;;;;;5031774;28;20167;-64
2022/03/10 06:38:18;;;;;;;22.23;16.33;;;1.20;99.90;;;;;;5031149;28;20183;-65
2022/03/10 06:40:43;;;;;;;18.47;15.30;;;1.30;99.90;;;;;;5031393;28;20645;-65
2022/03/10 06:43:09;;;;;;;19.43;16.27;;;1.40;99.90;;;;;;5030977;28;20202;-65
2022/03/10 06:45:35;;;;;;;23.07;16.57;;;1.40;99.90;;;;;;5031333;28;20187;-65
2022/03/10 06:48:00;;;;;;;21.10;16.73;;;1.50;99.90;;;;;;5029652;28;20183;-65
2022/03/10 06:50:28;;;;;;;19.40;16.07;;;1.60;99.90;;;;;;5031446;28;20179;-66
2022/03/10 06:52:56;;;;;;;21.90;17.30;;;1.60;99.90;;;;;;5031289;28;20683;-65
2022/03/10 06:55:22;;;;;;;27.10;17.03;;;1.70;99.90;;;;;;5031000;28;20195;-64
2022/03/10 06:57:48;;;;;;;26.23;17.40;;;1.80;99.90;;;;;;5030143;28;20285;-65
2022/03/10 07:00:14;;;;;;;24.97;17.30;;;1.80;99.90;;;;;;5029371;28;20270;-65
2022/03/10 07:02:39;;;;;;;24.13;17.20;;;1.90;99.90;;;;;;5030900;28;20211;-65
2022/03/10 07:05:07;;;;;;;20.90;18.00;;;2.00;99.90;;;;;;5031075;28;20191;-64
2022/03/10 07:07:33;;;;;;;26.03;16.90;;;2.10;99.90;;;;;;5031346;28;20194;-65
2022/03/10 07:09:58;;;;;;;19.67;15.47;;;2.30;99.90;;;;;;5031116;28;20667;-65
2022/03/10 07:12:27;;;;;;;19.90;16.87;;;2.60;99.90;;;;;;5031039;28;20183;-65
2022/03/10 07:14:53;;;;;;;19.00;15.80;;;3.00;99.90;;;;;;5031041;28;20203;-66
2022/03/10 07:17:19;;;;;;;19.00;14.90;;;3.40;99.90;;;;;;5030473;28;20168;-65
2022/03/10 07:19:45;;;;;;;18.73;15.33;;;3.80;99.90;;;;;;5031067;28;20230;-66
2022/03/10 07:22:16;;;;;;;16.97;14.17;;;4.20;99.90;;;;;;5030762;28;20203;-66
2022/03/10 07:24:41;;;;;;;19.10;15.00;;;4.40;99.90;;;;;;5030942;28;20230;-66
2022/03/10 07:27:07;;;;;;;18.77;13.90;;;4.70;99.90;;;;;;5031032;28;20200;-65
2022/03/10 07:29:33;;;;;;;15.73;14.13;;;5.00;99.90;;;;;;5030436;28;20171;-66
2022/03/10 07:31:58;;;;;;;16.53;14.07;;;5.30;99.90;;;;;;5030986;28;20175;-65
2022/03/10 07:34:24;;;;;;;19.33;14.00;;;5.50;99.90;;;;;;5030795;28;20210;-66
2022/03/10 07:36:50;;;;;;;15.80;14.13;;;5.80;99.90;;;;;;5034847;28;20175;-66
2022/03/10 07:39:16;;;;;;;19.37;14.63;;;6.10;99.90;;;;;;5033623;28;20210;-66
2022/03/10 07:41:41;;;;;;;28.00;14.23;;;6.40;99.90;;;;;;5047037;28;20204;-66
2022/03/10 07:44:07;;;;;;;15.70;13.40;;;6.50;99.10;;;;;;5046824;28;20203;-66
2022/03/10 07:46:33;;;;;;;17.87;14.70;;;6.70;99.00;;;;;;5038497;28;20180;-65
2022/03/10 07:48:58;;;;;;;18.20;14.60;;;6.80;98.10;;;;;;5034263;28;20259;-65
2022/03/10 07:51:24;;;;;;;18.53;14.13;;;7.00;97.60;;;;;;5033949;28;20634;-65
2022/03/10 07:53:50;;;;;;;18.73;14.97;;;7.20;97.70;;;;;;5034040;28;20210;-67
2022/03/10 07:56:16;;;;;;;20.13;14.33;;;7.40;96.80;;;;;;5033426;28;20728;-66
2022/03/10 07:58:42;;;;;;;16.93;14.03;;;7.60;95.90;;;;;;5034793;28;20234;-66
2022/03/10 08:01:07;;;;;;;15.37;13.03;;;7.90;95.20;;;;;;5033260;28;20203;-65
2022/03/10 08:03:34;;;;;;;16.43;13.63;;;8.10;94.40;;;;;;5033811;28;20223;-65
2022/03/10 08:06:00;;;;;;;18.87;13.63;;;8.30;94.10;;;;;;5033693;28;20202;-66
2022/03/10 08:08:26;;;;;;;15.57;13.00;;;8.50;93.70;;;;;;5033942;28;20199;-66
2022/03/10 08:10:51;;;;;;;20.20;14.17;;;8.80;93.70;;;;;;5032413;28;20226;-66
2022/03/10 08:13:18;;;;;;;15.23;12.83;;;9.20;92.90;;;;;;5033091;28;20180;-66
2022/03/10 08:15:44;;;;;;;19.37;13.73;;;9.40;91.80;;;;;;5033380;28;20606;-66
2022/03/10 08:18:10;;;;;;;17.03;13.40;;;9.70;91.90;;;;;;5033727;28;20441;-66
2022/03/10 08:20:39;;;;;;;17.27;13.83;;;9.90;90.80;;;;;;5034071;28;20175;-65
2022/03/10 08:23:04;;;;;;;16.87;13.10;;;10.10;90.30;;;;;;5032417;28;20546;-65
2022/03/10 08:25:30;;;;;;;16.60;13.00;;;10.50;89.60;;;;;;5033543;28;20191;-66
2022/03/10 08:27:56;;;;;;;18.03;12.60;;;10.80;87.00;;;;;;5033749;28;20175;-65
2022/03/10 08:30:22;;;;;;;16.67;13.00;;;11.20;83.90;;;;;;5033611;28;20187;-65
2022/03/10 08:32:48;;;;;;;18.43;12.60;;;11.50;78.50;;;;;;5033117;28;20552;-66
2022/03/10 08:35:15;;;;;;;17.77;13.10;;;11.50;73.20;;;;;;5032695;28;20227;-67
2022/03/10 08:37:41;;;;;;;13.50;11.97;;;11.70;73.60;;;;;;5033611;28;20733;-66
2022/03/10 08:40:07;;;;;;;15.93;12.23;;;12.00;73.70;;;;;;5033104;28;20207;-66
2022/03/10 08:42:33;;;;;;;15.80;12.97;;;12.40;72.20;;;;;;5033246;28;20249;-66
2022/03/10 08:44:58;;;;;;;16.63;13.40;;;12.60;71.40;;;;;;5032928;28;20246;-66
2022/03/10 08:47:24;;;;;;;18.10;13.03;;;12.80;69.80;;;;;;5032837;28;20176;-66
2022/03/10 08:49:50;;;;;;;14.23;12.70;;;13.00;68.10;;;;;;5033345;28;20206;-66
2022/03/10 08:52:15;;;;;;;17.27;13.47;;;13.20;68.10;;;;;;5032916;28;20188;-66
2022/03/10 08:54:41;;;;;;;14.47;12.97;;;13.30;64.70;;;;;;5033255;28;20195;-65
2022/03/10 08:57:06;;;;;;;17.03;13.40;;;13.40;65.10;;;;;;5031209;28;20622;-66
2022/03/10 08:59:32;;;;;;;18.23;13.03;;;13.40;61.90;;;;;;5032963;28;20214;-66
2022/03/10 09:01:57;;;;;;;16.30;13.43;;;13.40;62.50;;;;;;5032876;28;20215;-66
2022/03/10 09:04:23;;;;;;;17.90;13.27;;;13.30;63.10;;;;;;5033041;28;20199;-66
2022/03/10 09:06:48;;;;;;;17.33;13.33;;;13.40;61.30;;;;;;5032811;28;20211;-66
2022/03/10 09:09:16;;;;;;;17.07;13.50;;;13.30;60.20;;;;;;5032752;28;20191;-66
2022/03/10 09:11:42;;;;;;;17.33;13.37;;;13.20;60.30;;;;;;5032911;28;20175;-66
2022/03/10 09:14:07;;;;;;;19.20;13.40;;;13.10;60.50;;;;;;5032237;28;20583;-66
2022/03/10 09:16:33;;;;;;;16.63;13.33;;;13.30;60.20;;;;;;5032981;28;20183;-66
2022/03/10 09:19:00;;;;;;;16.80;13.30;;;13.40;61.60;;;;;;5032505;28;20210;-66
2022/03/10 09:21:26;;;;;;;17.87;13.90;;;13.70;62.40;;;;;;5032237;28;20215;-66
2022/03/10 09:23:52;;;;;;;16.77;13.13;;;14.10;60.70;;;;;;5032121;28;20204;-66
2022/03/10 09:26:18;;;;;;;17.57;14.07;;;14.40;59.50;;;;;;5032102;28;20187;-64
2022/03/10 09:28:44;;;;;;;20.13;13.20;;;14.40;59.30;;;;;;5030927;28;20198;-66
2022/03/10 09:31:12;;;;;;;18.40;14.17;;;14.30;58.30;;;;;;5032018;28;20178;-65
2022/03/10 09:33:41;;;;;;;21.03;13.33;;;14.20;57.80;;;;;;5032137;28;20219;-64
2022/03/10 09:36:07;;;;;;;16.73;13.10;;;14.40;57.70;;;;;;5032189;28;20206;-65
2022/03/10 09:38:33;;;;;;;17.40;13.53;;;14.40;57.50;;;;;;5032438;28;20175;-65
2022/03/10 09:40:58;;;;;;;16.93;13.93;;;14.30;57.60;;;;;;5030874;28;20182;-64
2022/03/10 09:43:29;;;;;;;19.07;14.80;;;14.30;58.30;;;;;;5031582;28;20269;-65
2022/03/10 09:45:55;;;;;;;18.17;14.87;;;14.30;57.20;;;;;;5032018;28;20250;-65
2022/03/10 09:48:21;;;;;;;19.37;14.93;;;14.30;58.00;;;;;;5036509;28;20175;-67
2022/03/10 09:50:47;;;;;;;18.70;14.23;;;14.30;57.90;;;;;;5051985;28;20654;-64
2022/03/10 09:53:13;;;;;;;18.50;13.53;;;14.60;58.30;;;;;;5036625;28;20192;-67
2022/03/10 09:58:06;;;;;;;20.17;14.27;;;15.20;57.10;;;;;;5047883;22;20289;-66
2022/03/10 10:00:31;;;;;;;17.67;14.57;;;15.40;55.80;;;;;;5031153;28;20676;-66
2022/03/10 10:02:57;;;;;;;19.87;14.13;;;15.40;56.90;;;;;;5031147;28;20203;-65
2022/03/10 10:05:28;;;;;;;17.63;14.30;;;15.40;55.80;;;;;;5030889;28;20667;-65
2022/03/10 10:08:01;;;;;;;19.57;14.13;;;15.40;56.30;;;;;;5031209;28;20684;-65
2022/03/10 10:10:28;;;;;;;21.13;15.03;;;15.50;56.40;;;;;;5030741;28;20263;-65
2022/03/10 10:12:54;;;;;;;19.57;14.90;;;15.60;56.50;;;;;;5028697;28;20191;-65
2022/03/10 10:15:20;;;;;;;22.17;16.00;;;15.70;56.60;;;;;;5013358;28;20179;-65
2022/03/10 10:17:54;;;;;;;21.40;16.10;;;16.00;56.50;;;;;;5013398;28;20241;-65
2022/03/10 10:20:19;;;;;;;21.33;16.07;;;16.30;58.00;;;;;;5031470;28;20581;-65
2022/03/10 10:22:47;;;;;;;20.03;15.57;;;16.60;56.30;;;;;;5030963;28;20210;-66
2022/03/10 10:25:21;;;;;;;18.33;15.73;;;16.80;56.10;;;;;;5023183;28;20183;-66
2022/03/10 10:27:47;;;;;;;23.70;15.83;;;17.00;56.30;;;;;;5026646;28;20608;-66
2022/03/10 10:30:13;;;;;;;20.07;16.37;;;17.30;55.10;;;;;;5031136;28;20221;-66
2022/03/10 10:32:53;;;;;;;20.17;14.77;;;17.50;54.40;;;;;;5030696;28;20266;-66
2022/03/10 10:35:22;;;;;;;19.17;14.73;;;17.50;54.20;;;;;;5031144;28;20254;-65
2022/03/10 10:37:50;;;;;;;21.00;15.33;;;17.50;52.50;;;;;;5031087;28;20600;-65
2022/03/10 10:40:20;;;;;;;18.27;13.97;;;17.10;52.00;;;;;;5031154;28;20168;-66
2022/03/10 10:42:46;;;;;;;19.77;14.77;;;16.90;53.20;;;;;;5030794;28;20226;-66
2022/03/10 10:45:32;;;;;;;21.03;14.47;;;17.10;55.10;;;;;;5013384;28;20179;-66
2022/03/10 10:48:02;;;;;;;16.13;14.00;;;17.40;53.60;;;;;;5031006;28;20202;-66
2022/03/10 10:50:30;;;;;;;19.17;14.90;;;17.60;52.50;;;;;;5030975;28;20180;-66
2022/03/10 10:52:56;;;;;;;17.42;13.57;;;17.80;52.80;;;;;;5012819;28;20198;-66
2022/03/10 10:55:41;;;;;;;17.40;13.83;;;17.80;51.70;;;;;;5031042;28;20187;-65
2022/03/10 10:58:13;;;;;;;15.90;13.63;;;17.80;51.80;;;;;;5030806;28;20186;-66
2022/03/10 11:00:46;;;;;;;18.47;14.43;;;17.70;51.80;;;;;;5031152;28;20175;-66
2022/03/10 11:03:22;;;;;;;17.60;14.60;;;17.60;51.50;;;;;;5030065;28;20195;-65
2022/03/10 11:05:49;;;;;;;19.87;14.20;;;17.70;50.90;;;;;;5013305;28;20178;-65
2022/03/10 11:08:17;;;;;;;19.98;14.15;;;17.80;51.00;;;;;;5030585;28;20171;-65
2022/03/10 11:10:42;;;;;;;17.70;13.50;;;17.90;49.20;;;;;;5033459;28;20179;-66
2022/03/10 11:13:08;;;;;;;18.03;13.87;;;17.80;49.90;;;;;;5034168;28;20172;-65
2022/03/10 11:15:34;;;;;;;19.47;13.90;;;17.60;48.60;;;;;;5034840;28;20175;-65
2022/03/10 11:18:02;;;;;;;17.20;13.50;;;17.70;48.30;;;;;;5034413;28;20199;-65
2022/03/10 11:20:29;;;;;;;16.80;13.70;;;17.70;48.00;;;;;;5034713;28;20167;-66
2022/03/10 11:23:02;;;;;;;17.73;13.20;;;17.80;47.90;;;;;;5034345;28;20235;-66
2022/03/10 11:25:43;;;;;;;15.87;13.03;;;18.10;50.50;;;;;;5034769;28;20641;-65
2022/03/10 11:28:08;;;;;;;16.95;13.45;;;18.40;48.90;;;;;;5014836;28;20474;-66
2022/03/10 11:30:35;;;;;;;17.47;14.03;;;18.60;49.40;;;;;;5031988;28;20179;-66
2022/03/10 11:33:16;;;;;;;17.90;13.50;;;18.70;47.60;;;;;;5034118;28;20711;-66
2022/03/10 11:35:47;;;;;;;19.25;13.15;;;19.10;49.00;;;;;;5016263;28;20194;-66
2022/03/10 11:38:15;;;;;;;14.40;12.85;;;19.40;48.00;;;;;;5034338;28;20183;-66
2022/03/10 11:41:00;;;;;;;18.67;13.52;;;19.60;47.90;;;;;;5034124;28;20183;-65
2022/03/10 11:43:25;;;;;;;17.27;13.20;;;19.70;47.00;;;;;;5033832;28;20168;-66
2022/03/10 11:46:11;;;;;;;17.85;13.57;;;19.50;45.40;;;;;;5016094;28;20190;-66
2022/03/10 11:48:37;;;;;;;20.35;14.57;;;19.30;44.80;;;;;;5034460;28;20179;-66
2022/03/10 11:51:17;;;;;;;15.75;12.60;;;18.90;44.30;;;;;;5033527;28;20670;-66
2022/03/10 11:54:06;;;;;;;17.40;13.05;;;18.90;44.60;;;;;;5034028;28;20333;-66
2022/03/10 11:56:33;;;;;;;16.13;12.93;;;18.80;44.50;;;;;;5014163;28;20314;-65
2022/03/10 11:59:21;;;;;;;15.53;11.97;;;18.60;43.80;;;;;;5014599;28;20175;-66
2022/03/10 12:01:47;;;;;;;16.80;13.45;;;18.40;42.90;;;;;;5033962;28;20261;-65
2022/03/10 12:04:18;;;;;;;16.50;12.43;;;18.40;44.90;;;;;;5033508;28;20253;-67
2022/03/10 12:06:54;;;;;;;16.13;12.63;;;18.60;45.00;;;;;;5033923;28;20194;-66
2022/03/10 12:09:38;;;;;;;15.60;12.82;;;18.80;43.60;;;;;;5033333;28;20163;-66
2022/03/10 12:12:27;;;;;;;17.70;13.50;;;19.00;42.60;;;;;;5033508;28;20164;-67
2022/03/10 12:14:56;;;;;;;14.63;12.05;;;19.00;43.80;;;;;;5033823;28;20183;-66
2022/03/10 12:17:50;;;;;;;14.32;12.82;;;19.10;43.00;;;;;;5033328;28;20704;-66
2022/03/10 12:20:21;;;;;;;14.60;12.25;;;19.40;42.40;;;;;;5033131;28;20641;-66
2022/03/10 12:23:12;;;;;;;14.88;12.13;;;19.40;43.00;;;;;;5033408;28;20227;-66
2022/03/10 12:26:07;;;;;;;19.02;13.32;;;19.40;41.90;;;;;;5033303;28;20186;-65
2022/03/10 12:28:35;;;;;;;17.60;12.27;;;19.40;41.60;;;;;;5033562;28;20179;-66
2022/03/10 12:31:09;;;;;;;15.23;12.85;;;19.10;40.40;;;;;;5033142;28;20641;-66
2022/03/10 12:33:42;;;;;;;14.75;11.15;;;18.90;41.00;;;;;;5033188;28;20178;-66
2022/03/10 12:36:09;;;;;;;13.70;12.25;;;19.00;40.80;;;;;;5033031;28;20526;-66
2022/03/10 12:38:35;;;;;;;11.97;10.83;;;18.90;40.00;;;;;;5033492;28;20202;-66
2022/03/10 12:41:02;;;;;;;13.23;10.73;;;18.70;39.40;;;;;;5033249;28;20203;-66